• Join FlightAware (Why Join?)
  • Login
  • US Flag 
07:24PM EDT


 

Airport Tracker/Info


-or-


 

Live Flight TrackerFlight Track Log ✈ DAL1205 ✈ 10-Apr-2013 ✈ KATL - KBNA

Flight Track Log - Related Links

Times and Time Zones

All times are in EDT time to prevent confusion due to time zone crossing. See the DAL1205 flight status page for this flight to view local times or setup timezone preferences in your user account.

Time Position Orientation Groundspeed Altitude Reporting Facility
EDT Latitude Longitude Course Direction KTS MPH feet Rate Location/Type
07:13PM 33.6667 -84.3333 347° North 257 296 3,300  Level Atlanta TRACON
07:14PM 33.7167 -84.2667 48° Northeast 293 337 5,800 2,400 Climbing Atlanta TRACON
07:15PM 33.8000 -84.2667 360° North 306 352 8,100 1,860 Climbing Atlanta TRACON
07:17PM 33.9711 -84.3669 334° Northwest 349 402 11,700 1,920 Climbing Atlanta Center
07:18PM 34.0650 -84.4225 334° Northwest 363 418 14,100 2,100 Climbing Atlanta Center
07:19PM 34.1583 -84.5547 347° North  Level FlightAware Approximate
07:19PM 34.1567 -84.4831 331° Northwest 367 422 16,000  Level Atlanta Center
07:20PM 34.2461 -84.5589 325° Northwest 387 445 17,800 1,800 Climbing Atlanta Center
07:21PM 34.3292 -84.6450 319° Northwest 392 451 19,700 1,800 Climbing Atlanta Center
07:22PM 34.4225 -84.7339 322° Northwest 392 451 21,400 1,620 Climbing Atlanta Center
07:23PM 34.5119 -84.8203 321° Northwest 399 459 23,000 1,260 Climbing Atlanta Center
07:24PM 34.6072 -84.8969 326° Northwest 399 459 24,000 480 Climbing Atlanta Center
07:25PM 34.7092 -84.9686 330° Northwest 417 480 24,000  Level Atlanta Center
07:27PM 34.8997 -85.0931 332° Northwest 430 495 24,000  Level Memphis Center
07:28PM 34.9933 -85.1836 322° Northwest 435 501 24,000  Level Memphis Center
07:29PM 35.0769 -85.2928 313° West 415 478 24,000  Level Memphis Center
07:30PM 35.1483 -85.4078 307° West 415 478 24,000  Level Memphis Center
07:31PM 35.2317 -85.5094 315° West 420 483 24,000  Level Memphis Center
07:32PM 35.2975 -85.5922 314° West 425 489 24,000 -960 Level Memphis Center
07:33PM 35.4003 -85.7136 316° Northwest 425 489 22,100 -2,400 Descending Memphis Center
07:34PM 35.4850 -85.8058 318° Northwest 420 483 19,300 -2,940 Descending Memphis Center
07:35PM 35.5633 -85.9011 315° West 407 468 16,300 -2,880 Descending Memphis Center
07:36PM 35.6392 -85.9811 319° Northwest 401 461 13,600 -2,520 Descending Memphis Center
07:37PM 35.7136 -86.0769 314° West 390 449 11,300 -1,260 Descending Memphis Center
07:38PM 35.7792 -86.1708 311° West 376 433 11,100 -120 Descending Memphis Center
07:39PM 35.8450 -86.2622 312° West 363 418 11,100  Level Memphis Center
07:40PM 35.9150 -86.3639 310° West 358 412 11,100 -540 Level Memphis Center
07:41PM 35.9803 -86.4556 311° West 358 412 10,100 -960 Descending Memphis Center
07:42PM 36.0350 -86.5375 310° West 333 383 9,200 -1,260 Descending Memphis Center
07:43PM 36.1031 -86.5833 331° Northwest 277 319 7,600 -1,680 Descending Memphis Center
07:44PM 36.1814 -86.5461 21° North 269 310 5,900 -1,500 Descending Memphis Center
07:45PM 36.2575 -86.5194 16° North 286 329 4,600 -1,200 Descending Memphis Center
07:46PM 36.3086 -86.5481 336° Northwest 200 230 3,500 -780 Descending Memphis Center
07:47PM 36.3000 -86.6128 261° West 171 197 3,100 -300 Descending Memphis Center
07:48PM 36.2569 -86.6328 201° Southwest 135 155 3,000 -540 Descending Memphis Center
07:49PM 36.2094 -86.6503 197° South 162 186 2,100 -840 Descending Memphis Center
07:50PM 36.1767 -86.6647 200° South 163 188 1,400 -720 Descending Memphis Center
07:53PM 36.1167 -86.6667 248° West  Level FlightAware Approximate
08:00PM 36.1245 -86.6782 248° West  Level Estimated